createdAt,value
2018-06-22T00:02:09.148Z,3.07
2018-06-22T00:04:37.529Z,3.10
2018-06-22T00:07:06.268Z,2.87
2018-06-22T00:09:34.634Z,3.33
2018-06-22T00:12:03.036Z,3.13
2018-06-22T00:14:31.484Z,2.07
2018-06-22T00:16:59.864Z,2.63
2018-06-22T00:19:28.255Z,2.90
2018-06-22T00:21:56.683Z,2.43
2018-06-22T00:24:25.056Z,3.20
2018-06-22T00:26:53.465Z,2.83
2018-06-22T00:29:21.830Z,2.80
2018-06-22T00:31:50.280Z,2.27
2018-06-22T00:34:18.647Z,2.67
2018-06-22T00:36:47.135Z,2.30
2018-06-22T00:39:15.496Z,2.47
2018-06-22T00:41:43.875Z,2.73
2018-06-22T00:44:12.340Z,2.17
2018-06-22T00:46:40.730Z,3.00
2018-06-22T00:49:09.116Z,2.43
2018-06-22T00:51:37.527Z,3.37
2018-06-22T00:54:14.114Z,2.50
2018-06-22T00:56:42.500Z,2.93
2018-06-22T00:59:11.507Z,2.73
2018-06-22T01:01:39.996Z,2.47
2018-06-22T01:04:08.774Z,2.93
2018-06-22T01:06:37.214Z,2.57
2018-06-22T01:09:08.289Z,3.53
2018-06-22T01:11:36.737Z,2.70
2018-06-22T01:14:05.524Z,3.30
2018-06-22T01:16:34.052Z,3.30
2018-06-22T01:19:02.503Z,2.80
2018-06-22T01:21:30.981Z,2.70
2018-06-22T01:23:59.408Z,3.70
2018-06-22T01:26:27.820Z,2.57
2018-06-22T01:30:00.649Z,3.23
2018-06-22T01:32:29.108Z,2.73
2018-06-22T01:34:57.516Z,2.67
2018-06-22T01:37:25.928Z,2.60
2018-06-22T01:39:54.295Z,2.50
2018-06-22T01:42:22.702Z,2.77
2018-06-22T01:44:51.192Z,2.70
2018-06-22T01:47:19.604Z,2.30
2018-06-22T01:49:48.184Z,2.83
2018-06-22T01:52:17.168Z,2.93
2018-06-22T01:54:46.115Z,2.80
2018-06-22T01:57:14.524Z,2.47
2018-06-22T01:59:42.948Z,2.83
2018-06-22T02:02:11.357Z,2.70
2018-06-22T02:04:39.769Z,2.50
2018-06-22T02:07:08.255Z,2.80
2018-06-22T02:09:36.657Z,2.67
2018-06-22T02:12:05.156Z,2.70
2018-06-22T02:14:33.624Z,3.33
2018-06-22T02:17:02.017Z,3.00
2018-06-22T02:19:30.452Z,3.40
2018-06-22T02:21:58.982Z,2.70
2018-06-22T02:24:27.544Z,2.67
2018-06-22T02:26:56.050Z,2.50
2018-06-22T02:29:24.497Z,2.77
2018-06-22T02:31:52.997Z,2.80
2018-06-22T02:34:21.459Z,3.07
2018-06-22T02:36:49.863Z,3.20
2018-06-22T02:39:18.285Z,2.67
2018-06-22T02:41:46.694Z,3.00
2018-06-22T02:44:15.173Z,3.30
2018-06-22T02:46:43.694Z,2.70
2018-06-22T02:49:12.110Z,3.10
2018-06-22T02:51:40.562Z,3.03
2018-06-22T02:54:09.082Z,3.40
2018-06-22T02:56:37.719Z,3.07
2018-06-22T02:59:06.282Z,3.53
2018-06-22T03:01:35.294Z,3.03
2018-06-22T03:04:03.712Z,3.00
2018-06-22T03:06:32.115Z,2.80
2018-06-22T03:09:00.620Z,2.87
2018-06-22T03:11:29.132Z,2.60
2018-06-22T03:13:57.479Z,2.50
2018-06-22T03:16:25.860Z,2.63
2018-06-22T03:18:54.614Z,2.00
2018-06-22T03:21:22.963Z,2.50
2018-06-22T03:23:51.343Z,3.17
2018-06-22T03:26:19.713Z,2.70
2018-06-22T03:28:48.096Z,2.90
2018-06-22T03:31:16.461Z,2.97
2018-06-22T03:33:45.295Z,4.17
2018-06-22T03:36:13.713Z,3.63
2018-06-22T03:38:42.061Z,2.47
2018-06-22T03:41:10.410Z,2.23
2018-06-22T03:43:38.834Z,2.77
2018-06-22T03:46:07.229Z,2.80
2018-06-22T03:48:35.729Z,2.83
2018-06-22T03:51:04.141Z,2.40
2018-06-22T03:53:32.605Z,2.87
2018-06-22T03:56:00.999Z,2.90
2018-06-22T03:58:29.376Z,2.43
2018-06-22T04:00:57.805Z,2.30
2018-06-22T04:03:26.213Z,2.97
2018-06-22T04:05:54.590Z,2.27
2018-06-22T04:08:22.953Z,2.90
2018-06-22T04:10:51.336Z,2.73
2018-06-22T04:13:19.713Z,2.37
2018-06-22T04:15:48.141Z,2.50
2018-06-22T04:18:16.556Z,2.63
2018-06-22T04:20:44.962Z,3.70
2018-06-22T04:23:13.647Z,3.50
2018-06-22T04:25:42.041Z,2.83
2018-06-22T04:28:10.509Z,3.07
2018-06-22T04:30:38.977Z,3.70
2018-06-22T04:33:07.496Z,3.43
2018-06-22T04:35:35.896Z,3.33
2018-06-22T04:38:04.296Z,3.57
2018-06-22T04:40:32.807Z,3.10
2018-06-22T04:43:01.209Z,2.90
2018-06-22T04:45:29.733Z,2.97
2018-06-22T04:47:58.173Z,2.90
2018-06-22T04:50:26.576Z,2.90
2018-06-22T04:52:54.981Z,2.87
2018-06-22T04:55:23.373Z,3.67
2018-06-22T04:57:51.765Z,3.30
2018-06-22T05:00:20.223Z,3.10
2018-06-22T05:02:48.657Z,2.80
2018-06-22T05:05:17.044Z,3.13
2018-06-22T05:07:45.473Z,2.87
2018-06-22T05:10:13.932Z,3.30
2018-06-22T05:12:42.367Z,2.80
2018-06-22T05:15:10.755Z,2.80
2018-06-22T05:17:39.225Z,2.60
2018-06-22T05:20:07.608Z,2.90
2018-06-22T05:22:36.051Z,3.00
2018-06-22T05:25:04.456Z,3.27
2018-06-22T05:27:32.892Z,3.20
2018-06-22T05:30:01.308Z,2.60
2018-06-22T05:32:29.737Z,2.80
2018-06-22T05:34:58.104Z,2.90
2018-06-22T05:37:26.505Z,3.23
2018-06-22T05:39:55.022Z,3.07
2018-06-22T05:42:23.488Z,3.10
2018-06-22T05:44:51.973Z,2.93
2018-06-22T05:47:20.438Z,2.80
2018-06-22T05:49:48.828Z,2.73
2018-06-22T05:52:17.249Z,3.10
2018-06-22T05:54:45.636Z,3.03
2018-06-22T05:57:14.121Z,2.63
2018-06-22T05:59:42.474Z,2.87
2018-06-22T06:02:10.861Z,2.03
2018-06-22T06:04:39.245Z,3.07
2018-06-22T06:07:07.668Z,2.43
2018-06-22T06:09:36.049Z,2.90
2018-06-22T06:12:04.492Z,3.10
2018-06-22T06:14:32.838Z,2.70
2018-06-22T06:17:01.230Z,3.07
2018-06-22T06:19:29.639Z,2.50
2018-06-22T06:21:58.232Z,2.43
2018-06-22T06:24:27.728Z,3.00
2018-06-22T06:26:56.244Z,2.40
2018-06-22T06:29:24.853Z,2.87
2018-06-22T06:31:52.926Z,3.30
2018-06-22T06:34:21.434Z,2.17
2018-06-22T06:36:49.812Z,2.53
2018-06-22T06:39:18.308Z,3.23
2018-06-22T06:41:46.785Z,3.70
2018-06-22T06:44:15.696Z,3.03
2018-06-22T06:46:44.060Z,2.33
2018-06-22T06:49:12.440Z,2.73
2018-06-22T06:51:40.812Z,2.60
2018-06-22T06:54:09.238Z,2.30
2018-06-22T06:56:37.720Z,2.80
2018-06-22T06:59:06.224Z,3.27
2018-06-22T07:01:34.690Z,2.70
2018-06-22T07:04:03.092Z,2.87
2018-06-22T07:06:31.553Z,3.27
2018-06-22T07:09:00.010Z,3.10
2018-06-22T07:11:28.412Z,2.60
2018-06-22T07:13:56.824Z,2.87
2018-06-22T07:16:25.201Z,3.03
2018-06-22T07:18:53.616Z,3.03
2018-06-22T07:21:21.977Z,2.87
2018-06-22T07:23:50.596Z,2.67
2018-06-22T07:26:18.791Z,3.43
2018-06-22T07:28:47.238Z,2.90
2018-06-22T07:31:15.619Z,3.13
2018-06-22T07:33:44.024Z,2.83
2018-06-22T07:36:12.440Z,3.10
2018-06-22T07:38:40.871Z,4.00
2018-06-22T07:41:09.415Z,3.60
2018-06-22T07:43:37.896Z,3.40
2018-06-22T07:46:06.328Z,2.80
2018-06-22T07:48:34.718Z,3.77
2018-06-22T07:51:03.365Z,3.20
2018-06-22T07:53:31.753Z,4.10
2018-06-22T07:56:00.308Z,3.00
2018-06-22T07:58:28.678Z,3.63
2018-06-22T08:00:57.077Z,4.10
2018-06-22T08:03:25.481Z,3.57
2018-06-22T08:05:53.598Z,3.80
2018-06-22T08:08:22.383Z,3.50
2018-06-22T08:10:50.978Z,3.40
2018-06-22T08:13:19.540Z,4.83
2018-06-22T08:15:48.522Z,4.17
2018-06-22T08:18:17.122Z,3.80
2018-06-22T08:20:45.560Z,3.00
2018-06-22T08:23:14.028Z,3.43
2018-06-22T08:25:42.422Z,3.47
2018-06-22T08:28:10.997Z,3.60
2018-06-22T08:30:39.460Z,3.70
2018-06-22T08:33:07.827Z,4.10
2018-06-22T08:35:36.379Z,3.80
2018-06-22T08:38:05.325Z,4.20
2018-06-22T08:40:33.711Z,3.93
2018-06-22T08:43:02.437Z,4.30
2018-06-22T08:45:30.882Z,3.43
2018-06-22T08:47:59.264Z,4.40
2018-06-22T08:50:27.688Z,3.67
2018-06-22T08:52:56.178Z,4.73
2018-06-22T08:55:24.795Z,4.47
2018-06-22T08:57:52.887Z,4.70
2018-06-22T09:00:21.411Z,5.07
2018-06-22T09:02:49.892Z,3.70
2018-06-22T09:05:18.616Z,5.33
2018-06-22T09:07:47.079Z,4.00
2018-06-22T09:10:15.557Z,3.77
2018-06-22T09:12:44.114Z,4.17
2018-06-22T09:15:12.517Z,4.10
2018-06-22T09:17:40.945Z,4.50
2018-06-22T09:20:09.414Z,4.40
2018-06-22T09:22:37.835Z,3.90
2018-06-22T09:25:06.485Z,4.03
2018-06-22T09:27:34.869Z,4.73
2018-06-22T09:30:03.432Z,5.30
2018-06-22T09:32:31.929Z,4.37
2018-06-22T09:35:00.369Z,4.73
2018-06-22T09:37:28.890Z,4.10
2018-06-22T09:39:57.018Z,4.70
2018-06-22T09:42:25.587Z,4.30
2018-06-22T09:44:54.006Z,3.93
2018-06-22T09:47:22.434Z,3.87
2018-06-22T09:49:50.534Z,4.30
2018-06-22T09:52:18.984Z,4.00
2018-06-22T09:54:47.546Z,4.93
2018-06-22T09:57:16.034Z,4.10
2018-06-22T09:59:44.457Z,4.20
2018-06-22T10:02:13.088Z,3.83
2018-06-22T10:04:41.755Z,3.90
2018-06-22T10:07:10.229Z,4.10
2018-06-22T10:09:38.794Z,4.27
2018-06-22T10:12:07.180Z,3.80
2018-06-22T10:14:35.580Z,4.10
2018-06-22T10:17:03.695Z,3.60
2018-06-22T10:19:32.156Z,3.70
2018-06-22T10:22:00.739Z,3.10
2018-06-22T10:24:29.108Z,2.83
2018-06-22T10:26:57.856Z,2.90
2018-06-22T10:29:26.353Z,2.87
2018-06-22T10:31:55.146Z,3.73
2018-06-22T10:34:23.539Z,3.43
2018-06-22T10:36:51.972Z,3.40
2018-06-22T10:39:20.538Z,2.93
2018-06-22T10:41:48.889Z,2.77
2018-06-22T10:44:17.536Z,3.47
2018-06-22T10:46:46.211Z,3.07
2018-06-22T10:49:14.819Z,2.70
2018-06-22T10:51:43.273Z,3.40
2018-06-22T10:54:11.707Z,2.60
2018-06-22T10:56:40.088Z,3.10
2018-06-22T10:59:08.631Z,3.53
2018-06-22T11:01:37.132Z,4.27
2018-06-22T11:04:05.738Z,2.67
2018-06-22T11:06:34.156Z,3.30
2018-06-22T11:09:02.723Z,3.70
2018-06-22T11:11:31.094Z,4.10
2018-06-22T11:13:59.812Z,4.70
2018-06-22T11:16:28.093Z,4.20
2018-06-22T11:18:56.735Z,3.67
2018-06-22T11:21:25.404Z,3.50
2018-06-22T11:23:53.912Z,3.97
2018-06-22T11:26:22.323Z,4.17
2018-06-22T11:28:50.804Z,3.83
2018-06-22T11:31:19.729Z,2.63
2018-06-22T11:33:48.209Z,3.47
2018-06-22T11:36:16.827Z,2.40
2018-06-22T11:38:45.295Z,1.77
2018-06-22T11:41:13.833Z,2.70
2018-06-22T11:43:42.347Z,2.77
2018-06-22T11:46:11.072Z,2.97
2018-06-22T11:48:39.471Z,2.80
2018-06-22T11:51:08.459Z,2.40
2018-06-22T11:53:37.515Z,3.00
2018-06-22T11:56:06.422Z,3.03
2018-06-22T11:58:34.864Z,3.00
2018-06-22T12:01:03.552Z,3.60
2018-06-22T12:03:32.197Z,3.43
2018-06-22T12:06:00.625Z,2.90
2018-06-22T12:08:29.196Z,3.20
2018-06-22T12:10:57.949Z,3.57
2018-06-22T12:13:26.443Z,2.93
2018-06-22T12:15:55.071Z,3.00
2018-06-22T12:18:24.608Z,3.17
2018-06-22T12:20:53.089Z,3.20
2018-06-22T12:23:21.503Z,3.33
2018-06-22T12:25:50.451Z,3.70
2018-06-22T12:28:19.426Z,3.60
2018-06-22T12:30:48.536Z,4.40
2018-06-22T12:33:18.943Z,5.10
2018-06-22T12:35:47.479Z,4.27
2018-06-22T12:38:16.732Z,3.90
2018-06-22T12:40:47.268Z,4.23
2018-06-22T12:43:16.273Z,4.23
2018-06-22T12:45:46.399Z,4.67
2018-06-22T12:48:15.486Z,5.20
2018-06-22T12:50:44.449Z,5.80
2018-06-22T12:53:13.552Z,4.23
2018-06-22T12:55:42.356Z,3.70
2018-06-22T12:58:11.026Z,3.93
2018-06-22T13:00:39.952Z,4.40
2018-06-22T13:03:09.213Z,9.10
2018-06-22T13:05:37.931Z,4.13
2018-06-22T13:08:06.498Z,3.63
2018-06-22T13:10:35.021Z,3.43
2018-06-22T13:13:03.454Z,4.30
2018-06-22T13:15:32.017Z,3.03
2018-06-22T13:18:00.765Z,3.30
2018-06-22T13:20:29.508Z,3.30
2018-06-22T13:22:58.065Z,3.87
2018-06-22T13:25:26.414Z,3.57
2018-06-22T13:27:54.615Z,4.30
2018-06-22T13:30:23.044Z,3.20
2018-06-22T13:32:51.453Z,3.60
2018-06-22T13:35:19.881Z,4.10
2018-06-22T13:37:48.393Z,3.00
2018-06-22T13:40:16.920Z,3.67
2018-06-22T13:42:45.388Z,3.10
2018-06-22T13:45:13.805Z,3.63
2018-06-22T13:47:42.216Z,3.20
2018-06-22T13:50:10.738Z,2.77
2018-06-22T13:52:39.232Z,3.10
2018-06-22T13:55:07.745Z,2.93
2018-06-22T13:57:36.242Z,3.20
2018-06-22T14:00:05.632Z,2.13
2018-06-22T14:02:34.021Z,2.50
2018-06-22T14:05:07.731Z,2.27
2018-06-22T14:07:36.268Z,2.70
2018-06-22T14:10:04.763Z,2.53
2018-06-22T14:12:33.201Z,3.40
2018-06-22T14:15:01.648Z,2.57
2018-06-22T14:17:30.287Z,2.67
2018-06-22T14:19:58.741Z,2.50
2018-06-22T14:22:27.185Z,3.00
2018-06-22T14:24:55.686Z,3.10
2018-06-22T14:27:24.313Z,3.37
2018-06-22T14:29:52.807Z,2.60
2018-06-22T14:32:21.244Z,2.50
2018-06-22T14:34:49.714Z,2.60
2018-06-22T14:37:18.165Z,3.27
2018-06-22T14:39:46.631Z,2.50
2018-06-22T14:42:15.141Z,1.90
2018-06-22T14:44:43.516Z,2.37
2018-06-22T14:47:12.070Z,2.03
2018-06-22T14:49:40.458Z,2.03
2018-06-22T14:52:08.865Z,2.10
2018-06-22T14:54:42.773Z,1.80
2018-06-22T14:57:16.519Z,1.60
2018-06-22T14:59:50.240Z,1.80
2018-06-22T15:02:24.126Z,1.40
2018-06-22T15:04:58.749Z,1.77
2018-06-22T15:07:32.564Z,1.97
2018-06-22T15:10:01.049Z,1.77
2018-06-22T15:12:29.488Z,2.30
2018-06-22T15:14:58.126Z,2.50
2018-06-22T15:17:26.656Z,2.90
2018-06-22T15:19:55.050Z,2.00
2018-06-22T15:22:23.536Z,2.03
2018-06-22T15:24:51.987Z,2.77
2018-06-22T15:27:20.445Z,2.23
2018-06-22T15:29:48.974Z,2.13
2018-06-22T15:32:17.543Z,1.93
2018-06-22T15:35:50.124Z,2.43
2018-06-22T15:38:23.764Z,1.70
2018-06-22T15:40:57.530Z,1.97
2018-06-22T15:43:31.394Z,2.30
2018-06-22T15:46:05.212Z,2.00
2018-06-22T15:48:44.839Z,2.00
2018-06-22T15:51:18.521Z,1.90
2018-06-22T15:53:52.309Z,2.67
2018-06-22T15:56:20.772Z,1.90
2018-06-22T15:58:49.204Z,2.23
2018-06-22T16:01:17.671Z,2.33
2018-06-22T16:03:51.462Z,2.90
2018-06-22T16:06:20.264Z,1.90
2018-06-22T16:08:48.969Z,2.07
2018-06-22T16:11:17.487Z,2.27
2018-06-22T16:13:51.353Z,2.90
2018-06-22T16:16:25.012Z,2.80
2018-06-22T16:18:58.883Z,2.67
2018-06-22T16:21:32.740Z,2.70
2018-06-22T16:24:06.392Z,2.57
2018-06-22T16:26:40.290Z,2.60
2018-06-22T16:29:08.965Z,2.30
2018-06-22T16:31:37.576Z,2.30
2018-06-22T16:34:05.980Z,1.83
2018-06-22T16:36:34.550Z,2.57
2018-06-22T16:39:03.591Z,2.50
2018-06-22T16:41:32.488Z,2.30
2018-06-22T16:44:01.016Z,2.10
2018-06-22T16:46:29.412Z,2.50
2018-06-22T16:48:57.984Z,2.40
2018-06-22T16:51:26.427Z,2.30
2018-06-22T16:53:54.985Z,2.10
2018-06-22T16:56:23.459Z,2.13
2018-06-22T16:58:51.940Z,2.63
2018-06-22T17:01:20.479Z,2.43
2018-06-22T17:03:48.945Z,2.67
2018-06-22T17:06:17.352Z,2.60
2018-06-22T17:08:51.231Z,2.47
2018-06-22T17:11:24.886Z,2.33
2018-06-22T17:13:58.793Z,2.20
2018-06-22T17:16:32.508Z,2.80
2018-06-22T17:19:00.946Z,2.20
2018-06-22T17:21:29.528Z,2.70
2018-06-22T17:23:58.296Z,2.53
2018-06-22T17:26:26.801Z,2.30
2018-06-22T17:28:55.781Z,2.00
2018-06-22T17:31:24.490Z,2.13
2018-06-22T17:33:53.316Z,2.00
2018-06-22T17:36:21.888Z,2.57
2018-06-22T17:38:50.297Z,2.50
2018-06-22T17:41:18.738Z,3.00
2018-06-22T17:43:47.212Z,2.47
2018-06-22T17:46:15.585Z,2.40
2018-06-22T17:48:44.248Z,3.10
2018-06-22T17:51:12.694Z,2.50
2018-06-22T17:53:41.195Z,2.60
2018-06-22T17:56:09.641Z,2.70
2018-06-22T17:58:37.785Z,2.93
2018-06-22T18:01:11.718Z,2.70
2018-06-22T18:03:45.663Z,2.23
2018-06-22T18:06:19.459Z,2.80
2018-06-22T18:08:48.170Z,3.00
2018-06-22T18:11:21.864Z,2.17
2018-06-22T18:13:50.307Z,2.90
2018-06-22T18:16:18.757Z,2.50
2018-06-22T18:18:47.182Z,2.30
2018-06-22T18:21:15.645Z,2.23
2018-06-22T18:23:44.106Z,2.60
2018-06-22T18:26:12.575Z,3.00
2018-06-22T18:28:41.024Z,1.83
2018-06-22T18:31:09.433Z,2.70
2018-06-22T18:33:37.817Z,2.70
2018-06-22T18:36:06.406Z,2.63
2018-06-22T18:38:34.927Z,2.10
2018-06-22T18:41:03.350Z,3.23
2018-06-22T18:43:37.019Z,2.57
2018-06-22T18:46:05.494Z,2.50
2018-06-22T18:48:34.109Z,2.80
2018-06-22T18:51:02.448Z,3.10
2018-06-22T18:53:36.151Z,2.53
2018-06-22T18:56:09.976Z,2.90
2018-06-22T18:58:43.673Z,3.40
2018-06-22T19:01:17.607Z,3.17
2018-06-22T19:03:48.131Z,2.80
2018-06-22T19:06:16.715Z,3.13
2018-06-22T19:11:19.740Z,3.20
2018-06-22T19:13:48.147Z,3.43
2018-06-22T19:16:16.560Z,3.10
2018-06-22T19:18:44.984Z,3.10
2018-06-22T19:21:13.401Z,3.10
2018-06-22T19:23:41.798Z,3.00
2018-06-22T19:26:10.293Z,3.33
2018-06-22T19:28:38.641Z,3.37
2018-06-22T19:31:07.367Z,3.00
2018-06-22T19:33:35.720Z,2.70
2018-06-22T19:36:04.145Z,2.43
2018-06-22T19:38:32.560Z,2.83
2018-06-22T19:41:01.152Z,2.70
2018-06-22T19:43:35.343Z,2.70
2018-06-22T19:46:09.016Z,2.83
2018-06-22T19:48:42.815Z,2.07
2018-06-22T19:51:16.793Z,3.23
2018-06-22T19:53:48.962Z,2.73
2018-06-22T19:56:17.414Z,2.87
2018-06-22T19:58:45.788Z,3.00
2018-06-22T20:01:14.159Z,3.40
2018-06-22T20:03:42.523Z,3.00
2018-06-22T20:06:10.953Z,3.37
2018-06-22T20:08:39.351Z,2.30
2018-06-22T20:11:09.097Z,3.30
2018-06-22T20:13:37.531Z,3.20
2018-06-22T20:16:05.952Z,2.60
2018-06-22T20:18:34.356Z,3.30
2018-06-22T20:21:02.813Z,3.83
2018-06-22T20:23:31.216Z,4.20
2018-06-22T20:25:59.605Z,4.87
2018-06-22T20:28:28.140Z,3.57
2018-06-22T20:30:56.497Z,3.23
2018-06-22T20:33:24.965Z,4.03
2018-06-22T20:35:58.656Z,3.33
2018-06-22T20:38:32.408Z,4.07
2018-06-22T20:42:09.885Z,3.20
2018-06-22T20:44:43.597Z,3.40
2018-06-22T20:47:17.329Z,4.70
2018-06-22T20:50:54.866Z,4.50
2018-06-22T20:53:23.396Z,3.90
2018-06-22T20:55:52.022Z,5.07
2018-06-22T20:58:20.737Z,3.90
2018-06-22T21:00:49.185Z,3.47
2018-06-22T21:03:17.616Z,4.37
2018-06-22T21:05:46.000Z,3.37
2018-06-22T21:08:14.396Z,5.00
2018-06-22T21:10:42.799Z,4.30
2018-06-22T21:13:11.425Z,4.67
2018-06-22T21:15:39.770Z,4.17
2018-06-22T21:18:08.227Z,3.50
2018-06-22T21:20:36.631Z,4.77
2018-06-22T21:23:05.131Z,4.70
2018-06-22T21:25:33.508Z,4.10
2018-06-22T21:28:07.249Z,5.07
2018-06-22T21:30:40.896Z,4.20
2018-06-22T21:33:14.646Z,4.37
2018-06-22T21:35:48.346Z,5.07
2018-06-22T21:38:22.136Z,4.30
2018-06-22T21:40:50.546Z,4.37
2018-06-22T21:43:18.912Z,4.20
2018-06-22T21:45:47.303Z,5.03
2018-06-22T21:48:15.707Z,5.50
2018-06-22T21:50:44.112Z,5.40
2018-06-22T21:53:12.525Z,4.23
2018-06-22T21:55:40.927Z,4.83
2018-06-22T21:58:09.307Z,4.30
2018-06-22T22:00:37.991Z,4.77
2018-06-22T22:03:06.500Z,4.53
2018-06-22T22:05:34.875Z,5.43
2018-06-22T22:08:03.293Z,5.60
2018-06-22T22:10:37.073Z,4.83
2018-06-22T22:13:05.657Z,3.73
2018-06-22T22:15:34.067Z,6.23
2018-06-22T22:18:02.427Z,5.53
2018-06-22T22:20:30.804Z,4.73
2018-06-22T22:22:59.193Z,4.87
2018-06-22T22:25:27.657Z,4.87
2018-06-22T22:27:56.081Z,5.13
2018-06-22T22:30:24.472Z,6.00
2018-06-22T22:32:52.895Z,4.30
2018-06-22T22:35:21.321Z,4.37
2018-06-22T22:37:49.730Z,5.57
2018-06-22T22:40:18.152Z,6.07
2018-06-22T22:42:46.541Z,5.20
2018-06-22T22:45:14.939Z,4.00
2018-06-22T22:47:43.291Z,5.20
2018-06-22T22:50:11.697Z,6.33
2018-06-22T22:52:40.321Z,5.40
2018-06-22T22:55:08.704Z,4.77
2018-06-22T22:57:37.088Z,5.63
2018-06-22T23:00:05.477Z,5.33
2018-06-22T23:02:33.872Z,4.93
2018-06-22T23:05:02.240Z,4.90
2018-06-22T23:07:30.631Z,4.97
2018-06-22T23:09:59.164Z,5.50
2018-06-22T23:12:27.557Z,5.20
2018-06-22T23:14:56.014Z,5.50
2018-06-22T23:17:24.448Z,6.17
2018-06-22T23:19:52.820Z,4.80
2018-06-22T23:22:32.488Z,5.83
2018-06-22T23:25:00.928Z,6.47
2018-06-22T23:27:29.364Z,5.43
2018-06-22T23:29:57.744Z,5.60
2018-06-22T23:32:26.148Z,6.03
2018-06-22T23:34:54.525Z,5.73
2018-06-22T23:37:22.969Z,5.40
2018-06-22T23:39:51.344Z,5.50
2018-06-22T23:42:19.752Z,4.90
2018-06-22T23:44:48.121Z,4.70
2018-06-22T23:47:16.528Z,5.67
2018-06-22T23:49:44.973Z,6.30
2018-06-22T23:52:13.340Z,6.60
2018-06-22T23:54:41.742Z,5.70
2018-06-22T23:57:10.172Z,5.70
2018-06-22T23:59:38.577Z,5.47
